Time;durP1;ratioP1;P1;durP2;ratioP2;P2;SDS_P1;SDS_P2;PMS_P1;PMS_P2;Temp;Humidity;BMP_temperature;BMP_pressure;BME280_temperature;BME280_humidity;BME280_pressure;Samples;Min_cycle;Max_cycle;Signal;HPM_P1;HPM_P2
2020/12/27 00:01:56;;;;;;;7.07;4.13;;;-3.60;94.40;;;;;;5036874;28;20026;-65
2020/12/27 00:04:21;;;;;;;7.22;5.22;;;-3.60;95.40;;;;;;5033291;28;20041;-66
2020/12/27 00:06:47;;;;;;;8.57;5.63;;;-3.90;95.30;;;;;;5034354;28;20132;-65
2020/12/27 00:09:12;;;;;;;9.18;5.05;;;-4.10;96.90;;;;;;5033168;28;20124;-66
2020/12/27 00:11:38;;;;;;;7.22;4.93;;;-4.30;97.50;;;;;;5033351;28;20045;-67
2020/12/27 00:14:04;;;;;;;8.27;5.15;;;-4.30;98.00;;;;;;5033842;28;20108;-67
2020/12/27 00:16:30;;;;;;;8.75;5.40;;;-4.30;98.00;;;;;;5037299;28;20037;-65
2020/12/27 00:18:56;;;;;;;8.60;5.15;;;-4.30;98.00;;;;;;5038851;28;20341;-65
2020/12/27 00:21:22;;;;;;;6.30;4.35;;;-4.30;98.00;;;;;;5033694;28;20084;-65
2020/12/27 00:23:48;;;;;;;8.32;5.05;;;-4.20;98.00;;;;;;5033089;28;20040;-64
2020/12/27 00:26:14;;;;;;;7.50;4.72;;;-4.10;98.00;;;;;;5033049;28;20083;-66
2020/12/27 00:28:43;;;;;;;8.27;4.85;;;-4.10;97.90;;;;;;5034514;28;20108;-65
2020/12/27 00:31:09;;;;;;;7.15;4.30;;;-4.10;98.00;;;;;;5033572;28;20082;-65
2020/12/27 00:33:34;;;;;;;7.57;5.00;;;-4.10;98.00;;;;;;5034563;28;20362;-64
2020/12/27 00:36:01;;;;;;;5.97;4.28;;;-4.00;97.90;;;;;;5034241;28;20026;-64
2020/12/27 00:38:27;;;;;;;7.43;4.85;;;-3.90;97.60;;;;;;5033993;28;20030;-65
2020/12/27 00:40:54;;;;;;;6.45;4.50;;;-3.90;97.40;;;;;;5031435;28;20026;-66
2020/12/27 00:43:20;;;;;;;8.48;4.47;;;-3.90;97.40;;;;;;5034326;28;20037;-66
2020/12/27 00:45:46;;;;;;;6.70;4.63;;;-3.90;97.30;;;;;;5033627;28;20098;-64
2020/12/27 00:48:12;;;;;;;7.85;5.07;;;-4.00;97.20;;;;;;5033688;28;20025;-64
2020/12/27 00:50:38;;;;;;;7.70;4.70;;;-4.10;97.60;;;;;;5033762;28;20128;-64
2020/12/27 00:53:04;;;;;;;9.32;4.65;;;-4.20;98.00;;;;;;5033595;28;20160;-64
2020/12/27 00:55:30;;;;;;;7.82;4.97;;;-4.10;97.90;;;;;;5031862;28;20086;-64
2020/12/27 00:57:56;;;;;;;10.30;5.20;;;-4.10;97.80;;;;;;5035857;28;20104;-65
2020/12/27 01:00:22;;;;;;;8.00;4.78;;;-4.00;97.70;;;;;;5037163;28;20053;-65
2020/12/27 01:02:47;;;;;;;8.52;5.68;;;-4.00;97.60;;;;;;5033856;28;20307;-65
2020/12/27 01:05:13;;;;;;;8.82;6.10;;;-4.20;97.80;;;;;;5033470;28;20590;-64
2020/12/27 01:07:39;;;;;;;8.20;5.10;;;-4.30;98.00;;;;;;5032611;28;20548;-64
2020/12/27 01:10:05;;;;;;;7.05;4.80;;;-4.40;98.00;;;;;;5032309;28;20021;-64
2020/12/27 01:12:31;;;;;;;8.85;5.88;;;-4.40;98.00;;;;;;5034460;28;20045;-64
2020/12/27 01:14:57;;;;;;;8.07;5.45;;;-4.30;98.00;;;;;;5023411;28;20033;-66
2020/12/27 01:17:23;;;;;;;11.88;6.50;;;-4.30;98.00;;;;;;5033863;28;20064;-64
2020/12/27 01:19:49;;;;;;;11.40;6.47;;;-4.50;98.00;;;;;;5032468;28;20048;-65
2020/12/27 01:22:15;;;;;;;10.07;5.70;;;-4.70;98.00;;;;;;5029067;28;20033;-64
2020/12/27 01:24:41;;;;;;;7.13;4.75;;;-4.80;98.00;;;;;;5029590;28;20056;-66
2020/12/27 01:27:07;;;;;;;10.38;5.40;;;-4.90;98.00;;;;;;5014545;28;20033;-65
2020/12/27 01:29:33;;;;;;;8.27;5.05;;;-4.90;98.00;;;;;;5031801;28;20037;-65
2020/12/27 01:32:01;;;;;;;8.48;5.25;;;-4.90;98.00;;;;;;5034507;28;20025;-65
2020/12/27 01:34:30;;;;;;;10.27;5.05;;;-4.80;98.00;;;;;;5029793;28;20040;-63
2020/12/27 01:36:56;;;;;;;13.65;4.63;;;-4.60;98.00;;;;;;5034112;28;20030;-64
2020/12/27 01:39:22;;;;;;;7.95;5.68;;;-4.30;98.00;;;;;;5032554;28;20021;-65
2020/12/27 01:41:53;;;;;;;7.63;5.05;;;-4.20;98.00;;;;;;5047728;28;20036;-64
2020/12/27 01:44:19;;;;;;;15.50;5.78;;;-4.10;97.80;;;;;;5038139;28;20079;-66
2020/12/27 01:46:47;;;;;;;7.15;4.65;;;-3.90;96.80;;;;;;5034140;28;20378;-65
2020/12/27 01:49:13;;;;;;;7.75;5.15;;;-3.90;96.60;;;;;;5033263;28;20338;-65
2020/12/27 01:51:39;;;;;;;7.47;4.47;;;-4.00;97.40;;;;;;5035908;28;20053;-67
2020/12/27 01:54:06;;;;;;;6.50;4.40;;;-4.10;98.00;;;;;;5038760;28;20033;-66
2020/12/27 01:56:39;;;;;;;6.55;4.70;;;-4.20;98.00;;;;;;5038365;28;20665;-68
2020/12/27 01:59:09;;;;;;;7.72;5.28;;;-4.30;98.00;;;;;;5036118;28;20033;-67
2020/12/27 02:01:36;;;;;;;8.38;4.60;;;-4.30;98.00;;;;;;5042252;28;20037;-66
2020/12/27 02:04:03;;;;;;;9.05;5.07;;;-4.20;98.00;;;;;;5035691;28;20045;-66
2020/12/27 02:06:29;;;;;;;6.85;4.95;;;-4.30;98.00;;;;;;5036113;28;20029;-65
2020/12/27 02:08:57;;;;;;;7.90;4.65;;;-4.40;98.00;;;;;;5037286;28;20037;-66
2020/12/27 02:11:24;;;;;;;8.73;5.45;;;-4.50;98.00;;;;;;5046548;28;20036;-65
2020/12/27 02:13:56;;;;;;;9.50;5.68;;;-4.40;98.00;;;;;;5044126;28;20044;-67
2020/12/27 02:16:24;;;;;;;8.20;5.32;;;-4.40;98.00;;;;;;5036379;28;20033;-64
2020/12/27 02:18:51;;;;;;;8.77;5.55;;;-4.40;98.00;;;;;;5035812;28;20037;-67
2020/12/27 02:21:17;;;;;;;9.15;5.90;;;-4.40;98.00;;;;;;5046563;28;20032;-67
2020/12/27 02:23:43;;;;;;;8.13;5.72;;;-4.30;98.00;;;;;;5039221;28;20432;-66
2020/12/27 02:26:09;;;;;;;9.82;6.07;;;-4.30;98.00;;;;;;5035716;28;20021;-67
2020/12/27 02:28:35;;;;;;;10.00;5.65;;;-4.10;97.50;;;;;;5038883;28;20410;-65
2020/12/27 02:31:03;;;;;;;7.25;5.78;;;-4.00;97.20;;;;;;5035784;28;20453;-65
2020/12/27 02:33:29;;;;;;;11.23;6.03;;;-4.00;97.00;;;;;;5036498;28;20044;-67
2020/12/27 02:35:55;;;;;;;8.10;5.78;;;-4.10;97.00;;;;;;5036632;28;20033;-65
2020/12/27 02:38:22;;;;;;;8.00;5.35;;;-4.40;97.00;;;;;;5036618;28;20033;-67
2020/12/27 02:40:47;;;;;;;10.25;5.43;;;-4.60;97.80;;;;;;5034117;28;20425;-67
2020/12/27 02:43:17;;;;;;;7.78;5.80;;;-4.50;97.70;;;;;;5034688;28;20029;-67
2020/12/27 02:45:47;;;;;;;9.45;6.28;;;-4.60;97.60;;;;;;5035075;28;20048;-67
2020/12/27 02:48:13;;;;;;;10.80;5.80;;;-4.50;97.90;;;;;;5033892;28;20021;-67
2020/12/27 02:50:39;;;;;;;8.63;6.15;;;-4.30;97.90;;;;;;5035588;28;20052;-66
2020/12/27 02:53:05;;;;;;;10.63;6.30;;;-4.10;97.40;;;;;;5035294;28;20095;-65
2020/12/27 02:55:32;;;;;;;7.97;5.85;;;-3.90;96.60;;;;;;5030385;28;20037;-66
2020/12/27 02:57:57;;;;;;;8.20;5.72;;;-3.80;96.20;;;;;;5030448;28;20326;-66
2020/12/27 03:00:23;;;;;;;9.93;6.65;;;-3.70;96.20;;;;;;5035792;28;20034;-65
2020/12/27 03:02:49;;;;;;;10.25;6.25;;;-3.60;95.30;;;;;;5034578;28;20036;-67
2020/12/27 03:05:14;;;;;;;8.85;5.93;;;-3.50;94.80;;;;;;5034104;28;20034;-67
2020/12/27 03:07:40;;;;;;;11.60;5.90;;;-3.50;94.70;;;;;;5032569;28;20040;-66
2020/12/27 03:10:06;;;;;;;9.95;6.38;;;-3.50;94.60;;;;;;5032741;28;20033;-67
2020/12/27 03:12:32;;;;;;;9.00;6.20;;;-3.60;95.00;;;;;;5030674;28;20052;-65
2020/12/27 03:15:01;;;;;;;10.25;6.78;;;-3.50;95.00;;;;;;5028278;28;20103;-66
2020/12/27 03:17:26;;;;;;;11.35;6.55;;;-3.50;95.00;;;;;;5035079;28;20118;-67
2020/12/27 03:19:52;;;;;;;10.02;5.70;;;-3.50;95.00;;;;;;5035697;28;20433;-65
2020/12/27 03:22:17;;;;;;;9.93;6.60;;;-3.50;94.80;;;;;;5035686;28;20034;-65
2020/12/27 03:24:43;;;;;;;11.73;6.57;;;-3.60;95.40;;;;;;5033964;28;20109;-67
2020/12/27 03:27:09;;;;;;;11.13;6.90;;;-3.70;95.80;;;;;;5032602;28;20064;-66
2020/12/27 03:29:34;;;;;;;11.10;6.88;;;-3.60;95.90;;;;;;5037465;28;20053;-65
2020/12/27 03:32:00;;;;;;;11.55;7.25;;;-3.60;95.90;;;;;;5035250;28;20029;-67
2020/12/27 03:34:26;;;;;;;14.57;7.00;;;-3.60;96.30;;;;;;5035613;28;20037;-65
2020/12/27 03:36:57;;;;;;;8.48;6.50;;;-3.70;96.30;;;;;;5028341;28;20040;-67
2020/12/27 03:39:22;;;;;;;10.95;7.47;;;-3.70;95.70;;;;;;5032190;28;20413;-66
2020/12/27 03:41:48;;;;;;;10.23;6.93;;;-3.70;95.30;;;;;;5041236;28;20232;-66
2020/12/27 03:44:14;;;;;;;8.65;6.75;;;-3.70;95.40;;;;;;5032881;28;20037;-65
2020/12/27 03:46:39;;;;;;;11.63;6.85;;;-3.70;95.80;;;;;;5035199;28;20033;-65
2020/12/27 03:49:05;;;;;;;10.10;6.93;;;-3.80;96.40;;;;;;5026962;28;20330;-65
2020/12/27 03:51:30;;;;;;;13.20;6.78;;;-3.70;95.70;;;;;;5035174;28;20128;-67
2020/12/27 03:53:56;;;;;;;14.07;7.32;;;-3.80;95.60;;;;;;5027930;28;20030;-64
2020/12/27 03:56:23;;;;;;;15.45;7.20;;;-3.80;95.80;;;;;;5024428;28;20056;-64
2020/12/27 03:58:49;;;;;;;11.10;7.43;;;-3.70;95.20;;;;;;5034664;28;20371;-65
2020/12/27 04:01:15;;;;;;;11.23;7.47;;;-3.80;94.90;;;;;;5040289;28;20029;-68
2020/12/27 04:03:41;;;;;;;14.77;7.60;;;-3.90;95.50;;;;;;5033452;28;20033;-69
2020/12/27 04:06:09;;;;;;;12.02;8.05;;;-4.00;96.10;;;;;;5032850;28;20060;-66
2020/12/27 04:08:35;;;;;;;10.80;7.40;;;-4.10;96.70;;;;;;5023708;28;20044;-65
2020/12/27 04:11:01;;;;;;;15.63;8.50;;;-4.10;96.80;;;;;;5042274;28;20377;-67
2020/12/27 04:13:28;;;;;;;13.63;8.50;;;-4.00;97.10;;;;;;5026155;28;20442;-67
2020/12/27 04:15:53;;;;;;;13.90;8.57;;;-4.00;97.00;;;;;;5021451;28;20438;-65
2020/12/27 04:18:19;;;;;;;12.50;9.10;;;-4.00;97.00;;;;;;5028507;28;20116;-67
2020/12/27 04:20:45;;;;;;;11.60;7.93;;;-4.00;96.90;;;;;;5036472;28;20039;-67
2020/12/27 04:23:10;;;;;;;12.75;8.00;;;-3.90;96.70;;;;;;5034474;28;20037;-67
2020/12/27 04:25:45;;;;;;;9.75;7.18;;;-3.80;96.20;;;;;;5033698;28;20026;-65
2020/12/27 04:28:16;;;;;;;10.35;6.95;;;-3.80;95.40;;;;;;5028605;28;20044;-67
2020/12/27 04:30:44;;;;;;;10.50;7.60;;;-3.70;95.00;;;;;;5034488;28;20330;-67
2020/12/27 04:33:09;;;;;;;10.80;7.05;;;-3.90;95.40;;;;;;5024570;28;20040;-67
2020/12/27 04:35:35;;;;;;;10.77;7.72;;;-4.10;96.00;;;;;;5031655;28;20041;-67
2020/12/27 04:38:01;;;;;;;11.63;7.47;;;-4.20;96.50;;;;;;5032457;28;20025;-67
2020/12/27 04:40:26;;;;;;;9.73;6.95;;;-4.40;97.10;;;;;;5030403;28;20029;-67
2020/12/27 04:42:53;;;;;;;11.55;6.70;;;-4.40;97.70;;;;;;5033942;28;20064;-67
2020/12/27 04:45:19;;;;;;;12.07;6.75;;;-4.20;97.30;;;;;;5031130;28;20033;-67
2020/12/27 04:47:48;;;;;;;8.95;5.85;;;-3.90;96.00;;;;;;5027814;28;20018;-66
2020/12/27 04:50:15;;;;;;;8.95;6.05;;;-3.70;95.30;;;;;;5030386;28;20037;-66
2020/12/27 04:52:41;;;;;;;8.45;5.85;;;-3.60;94.70;;;;;;5034420;28;20065;-65
2020/12/27 04:55:07;;;;;;;10.73;6.45;;;-3.40;94.20;;;;;;5031952;28;20441;-65
2020/12/27 04:57:40;;;;;;;8.70;5.53;;;-3.30;93.80;;;;;;5029604;28;20040;-67
2020/12/27 05:00:06;;;;;;;8.63;5.10;;;-3.30;93.20;;;;;;5037461;28;20425;-66
2020/12/27 05:02:36;;;;;;;7.53;5.30;;;-3.10;92.40;;;;;;5032898;28;20129;-67
2020/12/27 05:05:02;;;;;;;9.18;5.20;;;-3.20;92.30;;;;;;5033863;28;20334;-65
2020/12/27 05:07:28;;;;;;;6.45;4.43;;;-3.30;92.80;;;;;;5024771;28;20029;-65
2020/12/27 05:09:54;;;;;;;9.27;5.30;;;-3.30;92.20;;;;;;5021650;28;20472;-66
2020/12/27 05:12:19;;;;;;;7.22;5.13;;;-3.20;92.10;;;;;;5032678;28;20030;-67
2020/12/27 05:14:46;;;;;;;8.60;5.57;;;-3.20;91.60;;;;;;5020907;28;20033;-67
2020/12/27 05:17:14;;;;;;;8.02;4.82;;;-3.20;91.60;;;;;;5033207;28;20098;-66
2020/12/27 05:19:41;;;;;;;8.48;4.75;;;-3.20;91.90;;;;;;5032536;28;20430;-66
2020/12/27 05:22:09;;;;;;;6.63;4.65;;;-3.30;91.80;;;;;;5033782;28;20033;-66
2020/12/27 05:24:36;;;;;;;6.03;4.15;;;-3.30;91.80;;;;;;5031637;28;20304;-65
2020/12/27 05:27:11;;;;;;;7.70;5.18;;;-3.20;91.00;;;;;;5031708;28;20033;-65
2020/12/27 05:29:37;;;;;;;6.40;4.15;;;-3.40;91.50;;;;;;5037217;28;20041;-67
2020/12/27 05:32:06;;;;;;;6.55;4.72;;;-3.40;91.70;;;;;;5048499;28;20036;-67
2020/12/27 05:34:31;;;;;;;7.85;4.35;;;-3.60;92.40;;;;;;5037544;28;20025;-66
2020/12/27 05:37:02;;;;;;;5.72;4.20;;;-3.70;93.50;;;;;;5026661;28;20036;-66
2020/12/27 05:39:29;;;;;;;6.55;4.72;;;-3.70;94.20;;;;;;5037969;28;20033;-65
2020/12/27 05:42:07;;;;;;;6.38;4.25;;;-3.80;94.80;;;;;;5034335;28;20034;-67
2020/12/27 05:44:36;;;;;;;6.03;4.13;;;-3.80;95.30;;;;;;5028067;28;20045;-67
2020/12/27 05:47:03;;;;;;;9.00;5.07;;;-3.90;95.70;;;;;;5037831;28;20063;-67
2020/12/27 05:49:29;;;;;;;6.38;4.65;;;-4.00;95.60;;;;;;5028040;28;20438;-65
2020/12/27 05:51:57;;;;;;;5.85;4.32;;;-4.10;95.50;;;;;;5036346;28;20441;-69
2020/12/27 05:54:33;;;;;;;8.75;4.85;;;-4.20;96.00;;;;;;5037431;28;20029;-66
2020/12/27 05:57:00;;;;;;;6.40;4.22;;;-4.20;96.20;;;;;;5034476;28;20053;-65
2020/12/27 05:59:29;;;;;;;8.63;4.88;;;-4.10;96.20;;;;;;5022684;28;20038;-67
2020/12/27 06:01:57;;;;;;;6.70;3.85;;;-4.00;96.10;;;;;;5030132;28;20057;-66
2020/12/27 06:04:38;;;;;;;8.95;5.20;;;-3.80;95.40;;;;;;5033761;28;20410;-67
2020/12/27 06:07:06;;;;;;;6.97;4.53;;;-3.60;94.50;;;;;;5030822;28;20484;-67
2020/12/27 06:09:37;;;;;;;8.63;4.20;;;-3.50;93.90;;;;;;5027428;28;20033;-67
2020/12/27 06:12:09;;;;;;;8.10;4.45;;;-3.40;93.40;;;;;;5029394;28;20057;-66
2020/12/27 06:14:42;;;;;;;7.25;4.45;;;-3.40;92.70;;;;;;5027575;28;20434;-65
2020/12/27 06:17:15;;;;;;;6.43;4.45;;;-3.40;92.60;;;;;;5036660;28;20134;-67
2020/12/27 06:19:59;;;;;;;5.68;3.92;;;-3.30;91.80;;;;;;5037076;28;20040;-66
2020/12/27 06:22:27;;;;;;;;;;;-3.40;92.00;;;;;;5033425;28;20422;-67
2020/12/27 06:24:55;;;;;;;6.80;3.85;;;-3.30;91.40;;;;;;5035440;28;19916;-67
2020/12/27 06:27:21;;;;;;;9.35;4.00;;;-3.20;90.80;;;;;;5025890;28;20030;-67
2020/12/27 06:30:05;;;;;;;7.72;4.30;;;-3.00;89.80;;;;;;5032694;28;20030;-66
2020/12/27 06:32:39;;;;;;;5.85;3.63;;;-2.90;89.00;;;;;;5031622;28;20315;-67
2020/12/27 06:35:06;;;;;;;6.57;3.53;;;-2.80;88.70;;;;;;5036401;28;20033;-65
2020/12/27 06:37:44;;;;;;;5.40;3.55;;;-2.70;86.50;;;;;;5030170;28;20029;-67
2020/12/27 06:40:12;;;;;;;9.15;3.85;;;-2.50;85.60;;;;;;5026249;28;20020;-67
2020/12/27 06:42:40;;;;;;;8.40;4.05;;;-2.40;85.30;;;;;;5035455;28;20381;-66
2020/12/27 06:45:24;;;;;;;6.03;4.07;;;-2.40;85.70;;;;;;5022766;28;20022;-65
2020/12/27 06:47:55;;;;;;;5.38;3.88;;;-2.60;86.90;;;;;;5034517;28;20079;-65
2020/12/27 06:50:23;;;;;;;5.93;3.90;;;-2.70;86.80;;;;;;5042714;28;20033;-65
2020/12/27 06:52:49;;;;;;;6.65;3.78;;;-2.70;87.10;;;;;;5027614;28;20068;-65
2020/12/27 06:55:34;;;;;;;6.60;3.92;;;-2.70;86.90;;;;;;5034959;28;20038;-68
2020/12/27 06:58:23;;;;;;;7.15;4.22;;;-2.60;86.50;;;;;;5027575;28;20025;-68
2020/12/27 07:01:08;;;;;;;5.97;4.30;;;-2.60;87.00;;;;;;5035202;28;20025;-67
2020/12/27 07:03:36;;;;;;;6.05;4.15;;;-2.60;86.90;;;;;;5019817;28;20430;-67
2020/12/27 07:06:19;;;;;;;7.85;4.50;;;-2.80;88.30;;;;;;5034479;28;20037;-67
2020/12/27 07:08:45;;;;;;;6.80;4.18;;;-2.70;87.60;;;;;;5034358;28;20032;-67
2020/12/27 07:11:18;;;;;;;6.78;3.72;;;-2.60;87.20;;;;;;5036980;28;20053;-67
2020/12/27 07:13:48;;;;;;;6.43;4.05;;;-2.60;87.00;;;;;;5029614;28;20022;-67
2020/12/27 07:16:15;;;;;;;6.28;4.05;;;-2.50;86.40;;;;;;5031223;28;20040;-67
2020/12/27 07:18:43;;;;;;;10.35;4.97;;;-2.50;86.70;;;;;;5033779;28;20304;-66
2020/12/27 07:21:18;;;;;;;6.82;4.35;;;-2.50;86.60;;;;;;5035449;28;20072;-67
2020/12/27 07:24:07;;;;;;;7.97;5.88;;;-2.50;87.00;;;;;;5034248;28;20021;-67
2020/12/27 07:26:33;;;;;;;8.90;5.82;;;-2.60;88.00;;;;;;5024502;28;20037;-67
2020/12/27 07:29:06;;;;;;;10.30;5.45;;;-2.70;88.90;;;;;;5034167;28;20034;-66
2020/12/27 07:31:35;;;;;;;6.45;4.40;;;-2.80;89.40;;;;;;5031618;28;20021;-67
2020/12/27 07:34:01;;;;;;;6.88;4.63;;;-2.60;88.80;;;;;;5035616;28;20063;-67
2020/12/27 07:36:28;;;;;;;6.03;3.92;;;-2.40;87.50;;;;;;5033421;28;20025;-66
2020/12/27 07:38:59;;;;;;;5.93;3.90;;;-2.10;86.40;;;;;;5028959;28;20040;-66
2020/12/27 07:41:37;;;;;;;5.70;4.00;;;-2.00;85.40;;;;;;5027084;28;20033;-67
2020/12/27 07:44:10;;;;;;;6.40;3.80;;;-1.90;85.10;;;;;;5031890;28;20029;-69
2020/12/27 07:46:35;;;;;;;5.20;3.72;;;-1.70;84.20;;;;;;5035321;28;20056;-65
2020/12/27 07:49:01;;;;;;;10.43;4.25;;;-1.70;83.70;;;;;;5024743;28;20053;-65
2020/12/27 07:51:27;;;;;;;6.80;4.55;;;-1.60;83.40;;;;;;5033172;28;20051;-67
2020/12/27 07:53:54;;;;;;;7.85;4.80;;;-1.70;83.80;;;;;;5028161;28;20362;-66
2020/12/27 07:56:25;;;;;;;7.55;4.95;;;-1.90;85.00;;;;;;5030067;28;20079;-67
2020/12/27 07:59:04;;;;;;;8.55;5.43;;;-2.00;85.50;;;;;;5029232;28;20394;-66
2020/12/27 08:01:36;;;;;;;9.00;5.50;;;-2.00;85.80;;;;;;5032136;28;20057;-67
2020/12/27 08:04:07;;;;;;;7.53;5.22;;;-2.10;86.50;;;;;;5030055;28;20381;-64
2020/12/27 08:06:39;;;;;;;8.48;5.50;;;-2.20;87.90;;;;;;5031881;28;20418;-67
2020/12/27 08:09:13;;;;;;;10.30;4.97;;;-2.30;87.90;;;;;;5030467;28;20025;-67
2020/12/27 08:11:44;;;;;;;8.98;5.38;;;-2.30;88.30;;;;;;5034519;28;20065;-67
2020/12/27 08:14:13;;;;;;;7.18;5.30;;;-2.20;88.70;;;;;;5032813;28;20085;-67
2020/12/27 08:16:41;;;;;;;8.57;5.47;;;-2.20;88.70;;;;;;5033775;28;20029;-65
2020/12/27 08:19:07;;;;;;;7.38;4.82;;;-2.10;88.70;;;;;;5031678;28;20172;-66
2020/12/27 08:21:34;;;;;;;8.02;5.18;;;-2.10;88.00;;;;;;5034310;28;20039;-66
2020/12/27 08:24:14;;;;;;;8.18;4.72;;;-2.00;88.20;;;;;;5033967;28;20441;-65
2020/12/27 08:26:42;;;;;;;7.18;4.72;;;-2.00;88.20;;;;;;5033603;28;20025;-66
2020/12/27 08:29:19;;;;;;;6.93;4.65;;;-1.90;88.40;;;;;;5031684;28;20292;-65
2020/12/27 08:31:49;;;;;;;8.95;4.95;;;-1.90;88.10;;;;;;5038516;28;20022;-66
2020/12/27 08:34:23;;;;;;;7.10;4.82;;;-1.90;88.10;;;;;;5035385;28;20037;-67
2020/12/27 08:36:54;;;;;;;7.43;5.10;;;-1.80;88.30;;;;;;5032968;28;20025;-65
2020/12/27 08:40:05;;;;;;;10.18;5.07;;;-1.80;88.00;;;;;;5032166;28;20033;-65
2020/12/27 08:42:41;;;;;;;7.90;5.05;;;-1.80;88.50;;;;;;5031216;28;20531;-68
2020/12/27 08:45:16;;;;;;;9.40;3.95;;;-1.70;88.20;;;;;;5034441;28;20033;-66
2020/12/27 08:47:44;;;;;;;6.93;4.82;;;-1.60;88.40;;;;;;5030652;28;20033;-67
2020/12/27 08:50:15;;;;;;;8.10;4.70;;;-1.40;87.80;;;;;;5048668;28;20084;-66
2020/12/27 08:52:45;;;;;;;7.47;4.50;;;-1.40;88.50;;;;;;5033372;28;20056;-65
2020/12/27 08:55:12;;;;;;;8.15;4.93;;;-1.40;88.00;;;;;;5032519;28;20017;-65
2020/12/27 08:57:41;;;;;;;7.28;4.57;;;-1.30;87.80;;;;;;5026567;28;20028;-65
2020/12/27 09:00:10;;;;;;;10.02;4.43;;;-1.30;87.80;;;;;;5039270;28;20028;-67
2020/12/27 09:02:36;;;;;;;6.88;4.30;;;-1.20;88.00;;;;;;5036001;28;20032;-67
2020/12/27 09:05:13;;;;;;;8.93;4.43;;;-1.10;87.70;;;;;;5036921;28;20033;-66
2020/12/27 09:07:46;;;;;;;7.35;4.45;;;-1.00;87.60;;;;;;5040505;28;20026;-67
2020/12/27 09:10:22;;;;;;;7.32;4.70;;;-0.90;87.90;;;;;;5022216;28;20256;-66
2020/12/27 09:13:05;;;;;;;6.35;4.03;;;-0.90;87.90;;;;;;5038071;28;20037;-67
2020/12/27 09:15:38;;;;;;;5.65;3.88;;;-0.90;88.00;;;;;;5037619;28;20435;-65
2020/12/27 09:18:10;;;;;;;6.57;4.07;;;-0.70;88.20;;;;;;5038670;28;20021;-65
2020/12/27 09:20:37;;;;;;;5.95;3.70;;;-0.60;88.50;;;;;;5037256;28;20029;-66
2020/12/27 09:23:16;;;;;;;6.15;3.53;;;-0.50;88.40;;;;;;5037242;28;20403;-65
2020/12/27 09:25:43;;;;;;;6.35;4.18;;;-0.40;88.40;;;;;;5033519;28;20033;-68
2020/12/27 09:28:18;;;;;;;5.78;3.67;;;-0.30;88.00;;;;;;5046415;28;20349;-66
2020/12/27 09:30:47;;;;;;;6.32;3.88;;;-0.30;88.40;;;;;;5037518;28;20087;-66
2020/12/27 09:33:19;;;;;;;6.03;3.78;;;-0.10;88.10;;;;;;5037573;28;20326;-65
2020/12/27 09:35:56;;;;;;;6.55;3.97;;;-0.20;88.20;;;;;;5028232;28;20029;-67
2020/12/27 09:38:29;;;;;;;6.35;4.03;;;-0.20;88.30;;;;;;5025002;28;20021;-65
2020/12/27 09:41:20;;;;;;;6.15;3.85;;;-0.20;88.00;;;;;;5032577;28;20326;-65
2020/12/27 09:43:55;;;;;;;8.15;4.43;;;-0.20;87.80;;;;;;5030708;28;20049;-67
2020/12/27 09:46:43;;;;;;;6.38;4.20;;;-0.20;88.40;;;;;;5030556;28;20555;-64
2020/12/27 09:49:15;;;;;;;7.50;3.58;;;-0.10;88.10;;;;;;5030741;28;20022;-67
2020/12/27 09:51:41;;;;;;;7.18;3.60;;;0.00;87.90;;;;;;5032467;28;20049;-67
2020/12/27 09:54:07;;;;;;;4.97;3.63;;;0.00;87.80;;;;;;5032114;28;20030;-67
2020/12/27 09:56:43;;;;;;;6.13;3.60;;;0.00;88.00;;;;;;5029546;28;20367;-67
2020/12/27 09:59:10;;;;;;;5.55;3.90;;;0.00;88.00;;;;;;5030825;28;20430;-67
2020/12/27 10:01:36;;;;;;;6.55;4.28;;;0.10;88.10;;;;;;5033351;28;20320;-68
2020/12/27 10:04:03;;;;;;;6.95;4.75;;;0.20;87.70;;;;;;5033512;28;20080;-65
2020/12/27 10:06:30;;;;;;;8.48;4.72;;;0.10;87.00;;;;;;5036094;28;20021;-66
2020/12/27 10:08:58;;;;;;;6.32;4.53;;;0.00;87.10;;;;;;5031266;28;20021;-67
2020/12/27 10:11:23;;;;;;;9.38;5.00;;;-0.20;87.30;;;;;;5034848;28;20052;-67
2020/12/27 10:13:49;;;;;;;8.38;5.28;;;-0.20;88.10;;;;;;5029366;28;20049;-67
2020/12/27 10:16:15;;;;;;;7.38;4.90;;;-0.40;88.00;;;;;;5036475;28;20088;-67
2020/12/27 10:18:40;;;;;;;9.45;5.20;;;-0.60;88.30;;;;;;5036430;28;20034;-67
2020/12/27 10:21:09;;;;;;;7.25;4.95;;;-0.60;89.00;;;;;;5031831;28;20326;-67
2020/12/27 10:23:35;;;;;;;7.00;4.50;;;-0.40;89.00;;;;;;5035638;28;20026;-66
2020/12/27 10:26:06;;;;;;;7.45;4.85;;;-0.40;88.70;;;;;;5033495;28;20108;-66
2020/12/27 10:28:33;;;;;;;8.18;4.47;;;-0.30;88.60;;;;;;5030990;28;20437;-66
2020/12/27 10:30:59;;;;;;;7.85;4.70;;;-0.20;88.90;;;;;;5035004;28;20025;-66
2020/12/27 10:33:25;;;;;;;6.28;4.38;;;-0.10;88.40;;;;;;5033762;28;20087;-67
2020/12/27 10:35:53;;;;;;;6.20;4.60;;;-0.10;88.80;;;;;;5026396;28;20033;-66
2020/12/27 10:38:19;;;;;;;5.63;4.20;;;0.00;88.30;;;;;;5032681;28;20032;-66
2020/12/27 10:40:44;;;;;;;7.13;4.78;;;0.00;88.10;;;;;;5032170;28;20030;-66
2020/12/27 10:43:10;;;;;;;8.00;4.95;;;0.00;88.30;;;;;;5034009;28;20381;-67
2020/12/27 10:45:36;;;;;;;8.65;4.65;;;0.10;88.00;;;;;;5028971;28;20033;-67
2020/12/27 10:48:01;;;;;;;8.65;4.82;;;0.20;88.10;;;;;;5032338;28;20087;-67
2020/12/27 10:50:27;;;;;;;8.43;5.47;;;0.10;88.10;;;;;;5029631;28;20049;-67
2020/12/27 10:52:53;;;;;;;7.40;5.32;;;0.00;87.80;;;;;;5035329;28;20018;-66
2020/12/27 10:55:19;;;;;;;8.25;5.32;;;0.00;88.60;;;;;;5034460;28;20037;-67
2020/12/27 10:57:44;;;;;;;7.60;4.43;;;-0.10;89.00;;;;;;5035808;28;20026;-66
2020/12/27 11:00:10;;;;;;;7.63;5.10;;;-0.10;89.40;;;;;;5028668;28;20103;-67
2020/12/27 11:02:35;;;;;;;7.32;4.85;;;0.00;88.80;;;;;;5030042;28;20030;-65
2020/12/27 11:05:01;;;;;;;9.35;5.40;;;0.00;89.10;;;;;;5038147;28;20032;-67
2020/12/27 11:07:26;;;;;;;7.68;5.20;;;0.00;89.50;;;;;;5035038;28;20357;-67
2020/12/27 11:09:52;;;;;;;8.63;4.88;;;0.10;88.90;;;;;;5036037;28;20022;-65
2020/12/27 11:12:18;;;;;;;8.77;5.50;;;0.20;88.60;;;;;;5034745;28;20032;-66
2020/12/27 11:14:43;;;;;;;10.82;5.65;;;0.20;88.50;;;;;;5034884;28;20040;-67
2020/12/27 11:17:09;;;;;;;10.02;5.78;;;0.20;88.70;;;;;;5032947;28;20127;-65
2020/12/27 11:19:34;;;;;;;6.72;4.63;;;0.10;88.80;;;;;;5033649;28;20339;-66
2020/12/27 11:22:00;;;;;;;8.43;5.30;;;0.10;89.10;;;;;;5034687;28;20025;-65
2020/12/27 11:24:26;;;;;;;6.38;4.65;;;0.30;89.50;;;;;;5033760;28;20029;-65
2020/12/27 11:26:54;;;;;;;9.10;6.00;;;0.30;88.80;;;;;;5031637;28;20037;-65
2020/12/27 11:29:20;;;;;;;13.43;5.97;;;0.20;88.80;;;;;;5034761;28;20045;-66
2020/12/27 11:31:46;;;;;;;9.02;5.43;;;0.20;89.10;;;;;;5035068;28;20072;-67
2020/12/27 11:34:11;;;;;;;10.77;6.43;;;0.20;89.10;;;;;;5029270;28;20065;-67
2020/12/27 11:36:37;;;;;;;8.05;5.45;;;0.00;89.70;;;;;;5038315;28;20036;-65
2020/12/27 11:39:03;;;;;;;8.15;5.10;;;0.00;90.20;;;;;;5032072;28;20022;-66
2020/12/27 11:41:28;;;;;;;9.13;6.00;;;0.10;89.90;;;;;;5033543;28;20132;-66
2020/12/27 11:43:54;;;;;;;7.45;5.43;;;0.20;90.10;;;;;;5035490;28;20434;-67
2020/12/27 11:46:26;;;;;;;9.88;6.05;;;0.00;90.00;;;;;;5035498;28;20025;-67
2020/12/27 11:48:51;;;;;;;10.60;6.40;;;0.00;90.60;;;;;;5033768;28;20029;-66
2020/12/27 11:51:17;;;;;;;13.65;8.48;;;-0.10;91.00;;;;;;5032631;28;20441;-66
2020/12/27 11:53:43;;;;;;;13.00;7.72;;;0.00;90.80;;;;;;5033909;28;20092;-67
2020/12/27 11:56:08;;;;;;;14.88;8.98;;;0.00;90.40;;;;;;5033825;28;20029;-65
2020/12/27 11:58:34;;;;;;;14.63;9.30;;;0.00;90.70;;;;;;5026396;28;20414;-65
2020/12/27 12:01:02;;;;;;;17.25;9.70;;;0.10;90.50;;;;;;5032404;28;20022;-64
2020/12/27 12:03:27;;;;;;;10.18;6.28;;;0.00;91.00;;;;;;5026279;28;20038;-67
2020/12/27 12:05:53;;;;;;;12.05;7.00;;;0.00;90.30;;;;;;5032821;28;20108;-65
2020/12/27 12:08:24;;;;;;;12.50;7.43;;;0.00;90.30;;;;;;5034773;28;20536;-65
2020/12/27 12:10:53;;;;;;;9.30;6.95;;;-0.10;90.60;;;;;;5026460;28;20040;-65
2020/12/27 12:13:19;;;;;;;10.13;6.22;;;0.00;91.10;;;;;;5027960;28;20423;-65
2020/12/27 12:15:44;;;;;;;8.95;6.80;;;0.00;90.30;;;;;;5022000;28;20041;-67
2020/12/27 12:18:10;;;;;;;10.38;6.45;;;0.00;90.60;;;;;;5033390;28;20068;-67
2020/12/27 12:20:42;;;;;;;10.05;6.53;;;-0.10;90.90;;;;;;5034434;28;20037;-66
2020/12/27 12:23:08;;;;;;;10.77;6.30;;;0.00;90.80;;;;;;5029905;28;20048;-66
2020/12/27 12:25:39;;;;;;;8.82;5.60;;;0.00;90.30;;;;;;5029631;28;20426;-67
2020/12/27 12:28:08;;;;;;;9.65;5.80;;;-0.10;90.30;;;;;;5032438;28;20287;-67
2020/12/27 12:30:34;;;;;;;8.63;6.03;;;-0.20;90.60;;;;;;5028402;28;20430;-65
2020/12/27 12:32:59;;;;;;;10.70;5.78;;;-0.10;91.00;;;;;;5031976;28;20036;-65
2020/12/27 12:35:25;;;;;;;8.52;5.28;;;-0.10;90.70;;;;;;5025901;28;20308;-65
2020/12/27 12:37:51;;;;;;;9.85;5.60;;;-0.10;91.10;;;;;;5031532;28;20079;-65
2020/12/27 12:40:16;;;;;;;9.38;5.72;;;0.00;90.40;;;;;;5030502;28;20441;-65
2020/12/27 12:42:42;;;;;;;8.43;5.95;;;0.00;90.70;;;;;;5029609;28;20028;-65
2020/12/27 12:45:08;;;;;;;10.27;5.60;;;0.10;90.40;;;;;;5031115;28;20026;-66
2020/12/27 12:47:34;;;;;;;8.63;5.40;;;0.10;90.10;;;;;;5030613;28;20061;-66
2020/12/27 12:50:00;;;;;;;8.55;5.43;;;0.00;90.00;;;;;;5030608;28;20520;-67
2020/12/27 12:52:28;;;;;;;8.18;5.82;;;0.10;91.00;;;;;;5028957;28;20095;-66